sensor_id;sensor_type;location;lat;lon;timestamp;P1;durP1;ratioP1;P2;durP2;ratioP2
52186;SDS011;38161;53.020;6.598;2023-02-28T00:00:51;7.57;;;2.93;;
52186;SDS011;38161;53.020;6.598;2023-02-28T00:03:18;11.95;;;3.65;;
52186;SDS011;38161;53.020;6.598;2023-02-28T00:05:44;5.07;;;2.77;;
52186;SDS011;38161;53.020;6.598;2023-02-28T00:08:09;9.80;;;3.37;;
52186;SDS011;38161;53.020;6.598;2023-02-28T00:10:35;8.67;;;3.33;;
52186;SDS011;38161;53.020;6.598;2023-02-28T00:13:03;9.97;;;3.43;;
52186;SDS011;38161;53.020;6.598;2023-02-28T00:15:31;12.40;;;3.72;;
52186;SDS011;38161;53.020;6.598;2023-02-28T00:20:23;11.23;;;3.50;;
52186;SDS011;38161;53.020;6.598;2023-02-28T00:25:18;7.82;;;3.17;;
52186;SDS011;38161;53.020;6.598;2023-02-28T00:27:46;8.63;;;3.17;;
52186;SDS011;38161;53.020;6.598;2023-02-28T00:30:14;10.38;;;3.15;;
52186;SDS011;38161;53.020;6.598;2023-02-28T00:32:44;9.93;;;4.13;;
52186;SDS011;38161;53.020;6.598;2023-02-28T00:35:10;6.30;;;3.13;;
52186;SDS011;38161;53.020;6.598;2023-02-28T00:37:37;9.00;;;3.50;;
52186;SDS011;38161;53.020;6.598;2023-02-28T00:40:03;10.13;;;3.28;;
52186;SDS011;38161;53.020;6.598;2023-02-28T00:42:35;6.65;;;3.30;;
52186;SDS011;38161;53.020;6.598;2023-02-28T00:45:01;8.43;;;4.07;;
52186;SDS011;38161;53.020;6.598;2023-02-28T00:47:29;5.90;;;3.38;;
52186;SDS011;38161;53.020;6.598;2023-02-28T00:49:55;7.13;;;3.40;;
52186;SDS011;38161;53.020;6.598;2023-02-28T00:52:20;8.27;;;3.70;;
52186;SDS011;38161;53.020;6.598;2023-02-28T00:54:46;10.00;;;4.17;;
52186;SDS011;38161;53.020;6.598;2023-02-28T00:57:12;11.83;;;4.37;;
52186;SDS011;38161;53.020;6.598;2023-02-28T00:59:38;10.10;;;4.07;;
52186;SDS011;38161;53.020;6.598;2023-02-28T01:02:03;9.23;;;4.20;;
52186;SDS011;38161;53.020;6.598;2023-02-28T01:04:29;10.57;;;4.50;;
52186;SDS011;38161;53.020;6.598;2023-02-28T01:06:55;10.18;;;3.85;;
52186;SDS011;38161;53.020;6.598;2023-02-28T01:09:21;10.18;;;4.65;;
52186;SDS011;38161;53.020;6.598;2023-02-28T01:11:47;11.97;;;3.80;;
52186;SDS011;38161;53.020;6.598;2023-02-28T01:14:13;10.38;;;4.40;;
52186;SDS011;38161;53.020;6.598;2023-02-28T01:16:41;6.25;;;3.10;;
52186;SDS011;38161;53.020;6.598;2023-02-28T01:19:07;8.70;;;3.47;;
52186;SDS011;38161;53.020;6.598;2023-02-28T01:21:33;8.63;;;4.07;;
52186;SDS011;38161;53.020;6.598;2023-02-28T01:24:00;8.05;;;3.60;;
52186;SDS011;38161;53.020;6.598;2023-02-28T01:26:26;13.60;;;4.45;;
52186;SDS011;38161;53.020;6.598;2023-02-28T01:28:52;10.35;;;4.07;;
52186;SDS011;38161;53.020;6.598;2023-02-28T01:31:18;7.30;;;3.95;;
52186;SDS011;38161;53.020;6.598;2023-02-28T01:36:12;10.18;;;3.95;;
52186;SDS011;38161;53.020;6.598;2023-02-28T01:38:41;8.38;;;4.18;;
52186;SDS011;38161;53.020;6.598;2023-02-28T01:41:08;9.52;;;4.22;;
52186;SDS011;38161;53.020;6.598;2023-02-28T01:46:08;12.48;;;4.22;;
52186;SDS011;38161;53.020;6.598;2023-02-28T01:48:36;9.02;;;4.07;;
52186;SDS011;38161;53.020;6.598;2023-02-28T01:51:07;9.27;;;4.13;;
52186;SDS011;38161;53.020;6.598;2023-02-28T01:53:44;10.65;;;4.30;;
52186;SDS011;38161;53.020;6.598;2023-02-28T01:56:16;9.48;;;3.70;;
52186;SDS011;38161;53.020;6.598;2023-02-28T01:58:46;9.85;;;4.10;;
52186;SDS011;38161;53.020;6.598;2023-02-28T02:01:16;7.55;;;3.80;;
52186;SDS011;38161;53.020;6.598;2023-02-28T02:03:49;9.20;;;4.15;;
52186;SDS011;38161;53.020;6.598;2023-02-28T02:09:17;8.27;;;3.58;;
52186;SDS011;38161;53.020;6.598;2023-02-28T02:11:43;11.18;;;4.63;;
52186;SDS011;38161;53.020;6.598;2023-02-28T02:14:13;8.23;;;4.20;;
52186;SDS011;38161;53.020;6.598;2023-02-28T02:16:51;8.52;;;4.13;;
52186;SDS011;38161;53.020;6.598;2023-02-28T02:31:18;7.90;;;4.43;;
52186;SDS011;38161;53.020;6.598;2023-02-28T02:39:40;8.63;;;4.20;;
52186;SDS011;38161;53.020;6.598;2023-02-28T02:42:19;11.85;;;5.45;;
52186;SDS011;38161;53.020;6.598;2023-02-28T02:44:55;11.23;;;5.25;;
52186;SDS011;38161;53.020;6.598;2023-02-28T02:47:27;11.43;;;5.15;;
52186;SDS011;38161;53.020;6.598;2023-02-28T02:49:56;10.73;;;5.22;;
52186;SDS011;38161;53.020;6.598;2023-02-28T02:52:29;12.02;;;5.88;;
52186;SDS011;38161;53.020;6.598;2023-02-28T02:55:01;10.68;;;5.22;;
52186;SDS011;38161;53.020;6.598;2023-02-28T03:00:20;11.80;;;6.03;;
52186;SDS011;38161;53.020;6.598;2023-02-28T03:02:50;12.60;;;5.63;;
52186;SDS011;38161;53.020;6.598;2023-02-28T03:05:26;14.75;;;6.18;;
52186;SDS011;38161;53.020;6.598;2023-02-28T03:07:55;10.10;;;6.38;;
52186;SDS011;38161;53.020;6.598;2023-02-28T03:15:50;13.98;;;5.78;;
52186;SDS011;38161;53.020;6.598;2023-02-28T03:21:17;10.52;;;5.10;;
52186;SDS011;38161;53.020;6.598;2023-02-28T03:24:23;9.70;;;5.13;;
52186;SDS011;38161;53.020;6.598;2023-02-28T03:26:43;9.13;;;5.28;;
52186;SDS011;38161;53.020;6.598;2023-02-28T03:29:20;10.40;;;5.32;;
52186;SDS011;38161;53.020;6.598;2023-02-28T03:31:59;9.52;;;4.95;;
52186;SDS011;38161;53.020;6.598;2023-02-28T03:34:29;16.20;;;5.07;;
52186;SDS011;38161;53.020;6.598;2023-02-28T03:37:01;8.88;;;4.95;;
52186;SDS011;38161;53.020;6.598;2023-02-28T03:42:10;11.93;;;5.28;;
52186;SDS011;38161;53.020;6.598;2023-02-28T03:44:44;11.10;;;5.25;;
52186;SDS011;38161;53.020;6.598;2023-02-28T03:49:46;13.15;;;5.88;;
52186;SDS011;38161;53.020;6.598;2023-02-28T03:52:19;9.75;;;5.47;;
52186;SDS011;38161;53.020;6.598;2023-02-28T03:54:50;8.77;;;5.15;;
52186;SDS011;38161;53.020;6.598;2023-02-28T04:00:02;11.20;;;5.88;;
52186;SDS011;38161;53.020;6.598;2023-02-28T04:02:35;9.73;;;5.22;;
52186;SDS011;38161;53.020;6.598;2023-02-28T04:05:01;15.73;;;6.13;;
52186;SDS011;38161;53.020;6.598;2023-02-28T04:07:31;11.57;;;6.03;;
52186;SDS011;38161;53.020;6.598;2023-02-28T04:09:57;12.07;;;5.75;;
52186;SDS011;38161;53.020;6.598;2023-02-28T04:14:49;10.65;;;5.65;;
52186;SDS011;38161;53.020;6.598;2023-02-28T04:17:16;12.52;;;6.72;;
52186;SDS011;38161;53.020;6.598;2023-02-28T04:19:41;12.80;;;6.28;;
52186;SDS011;38161;53.020;6.598;2023-02-28T04:22:08;11.18;;;6.38;;
52186;SDS011;38161;53.020;6.598;2023-02-28T04:24:34;15.83;;;6.33;;
52186;SDS011;38161;53.020;6.598;2023-02-28T04:27:00;14.38;;;6.72;;
52186;SDS011;38161;53.020;6.598;2023-02-28T04:29:28;12.00;;;6.35;;
52186;SDS011;38161;53.020;6.598;2023-02-28T04:31:57;16.33;;;6.73;;
52186;SDS011;38161;53.020;6.598;2023-02-28T04:34:24;12.48;;;7.25;;
52186;SDS011;38161;53.020;6.598;2023-02-28T04:36:54;15.80;;;7.38;;
52186;SDS011;38161;53.020;6.598;2023-02-28T04:39:21;13.65;;;7.05;;
52186;SDS011;38161;53.020;6.598;2023-02-28T04:41:47;12.32;;;7.18;;
52186;SDS011;38161;53.020;6.598;2023-02-28T04:44:13;12.73;;;7.55;;
52186;SDS011;38161;53.020;6.598;2023-02-28T04:46:39;13.20;;;7.07;;
52186;SDS011;38161;53.020;6.598;2023-02-28T04:49:05;17.45;;;7.65;;
52186;SDS011;38161;53.020;6.598;2023-02-28T04:51:31;14.45;;;8.25;;
52186;SDS011;38161;53.020;6.598;2023-02-28T04:53:57;18.40;;;8.30;;
52186;SDS011;38161;53.020;6.598;2023-02-28T04:56:23;17.67;;;9.23;;
52186;SDS011;38161;53.020;6.598;2023-02-28T04:58:49;16.20;;;8.80;;
52186;SDS011;38161;53.020;6.598;2023-02-28T05:01:18;18.38;;;9.38;;
52186;SDS011;38161;53.020;6.598;2023-02-28T05:03:46;16.80;;;9.65;;
52186;SDS011;38161;53.020;6.598;2023-02-28T05:06:13;16.20;;;9.00;;
52186;SDS011;38161;53.020;6.598;2023-02-28T05:08:39;18.13;;;9.40;;
52186;SDS011;38161;53.020;6.598;2023-02-28T05:13:33;18.38;;;9.70;;
52186;SDS011;38161;53.020;6.598;2023-02-28T05:16:00;19.60;;;9.93;;
52186;SDS011;38161;53.020;6.598;2023-02-28T05:18:26;18.93;;;10.37;;
52186;SDS011;38161;53.020;6.598;2023-02-28T05:20:52;17.73;;;10.05;;
52186;SDS011;38161;53.020;6.598;2023-02-28T05:23:18;18.53;;;10.63;;
52186;SDS011;38161;53.020;6.598;2023-02-28T05:25:45;18.13;;;9.35;;
52186;SDS011;38161;53.020;6.598;2023-02-28T05:28:11;21.38;;;9.40;;
52186;SDS011;38161;53.020;6.598;2023-02-28T05:30:37;22.02;;;10.90;;
52186;SDS011;38161;53.020;6.598;2023-02-28T05:33:03;18.25;;;10.05;;
52186;SDS011;38161;53.020;6.598;2023-02-28T05:35:29;25.67;;;10.97;;
52186;SDS011;38161;53.020;6.598;2023-02-28T05:37:55;22.77;;;11.10;;
52186;SDS011;38161;53.020;6.598;2023-02-28T05:40:20;23.13;;;10.83;;
52186;SDS011;38161;53.020;6.598;2023-02-28T05:42:46;19.33;;;10.83;;
52186;SDS011;38161;53.020;6.598;2023-02-28T05:45:12;20.77;;;10.60;;
52186;SDS011;38161;53.020;6.598;2023-02-28T05:47:38;21.38;;;11.15;;
52186;SDS011;38161;53.020;6.598;2023-02-28T05:50:04;20.88;;;11.10;;
52186;SDS011;38161;53.020;6.598;2023-02-28T05:52:31;22.23;;;11.77;;
52186;SDS011;38161;53.020;6.598;2023-02-28T05:54:57;22.20;;;11.52;;
52186;SDS011;38161;53.020;6.598;2023-02-28T05:57:22;21.73;;;11.30;;
52186;SDS011;38161;53.020;6.598;2023-02-28T05:59:49;24.90;;;11.85;;
52186;SDS011;38161;53.020;6.598;2023-02-28T06:02:15;19.57;;;11.43;;
52186;SDS011;38161;53.020;6.598;2023-02-28T06:04:42;19.63;;;11.07;;
52186;SDS011;38161;53.020;6.598;2023-02-28T06:07:09;19.90;;;11.45;;
52186;SDS011;38161;53.020;6.598;2023-02-28T06:12:02;18.97;;;10.97;;
52186;SDS011;38161;53.020;6.598;2023-02-28T06:14:31;20.70;;;11.20;;
52186;SDS011;38161;53.020;6.598;2023-02-28T06:16:58;20.47;;;11.37;;
52186;SDS011;38161;53.020;6.598;2023-02-28T06:19:25;21.90;;;11.53;;
52186;SDS011;38161;53.020;6.598;2023-02-28T06:21:52;20.85;;;12.73;;
52186;SDS011;38161;53.020;6.598;2023-02-28T06:24:19;22.97;;;11.13;;
52186;SDS011;38161;53.020;6.598;2023-02-28T06:26:46;25.50;;;11.93;;
52186;SDS011;38161;53.020;6.598;2023-02-28T06:29:13;19.88;;;10.10;;
52186;SDS011;38161;53.020;6.598;2023-02-28T06:31:44;22.67;;;11.13;;
52186;SDS011;38161;53.020;6.598;2023-02-28T06:34:11;26.08;;;12.65;;
52186;SDS011;38161;53.020;6.598;2023-02-28T06:36:37;21.88;;;12.60;;
52186;SDS011;38161;53.020;6.598;2023-02-28T06:41:29;24.17;;;12.40;;
52186;SDS011;38161;53.020;6.598;2023-02-28T06:43:55;23.10;;;12.73;;
52186;SDS011;38161;53.020;6.598;2023-02-28T06:46:22;23.67;;;12.23;;
52186;SDS011;38161;53.020;6.598;2023-02-28T06:51:16;21.33;;;11.98;;
52186;SDS011;38161;53.020;6.598;2023-02-28T06:53:45;26.67;;;12.80;;
52186;SDS011;38161;53.020;6.598;2023-02-28T06:56:12;22.52;;;12.48;;
52186;SDS011;38161;53.020;6.598;2023-02-28T06:58:39;20.93;;;12.00;;
52186;SDS011;38161;53.020;6.598;2023-02-28T07:01:06;21.00;;;12.20;;
52186;SDS011;38161;53.020;6.598;2023-02-28T07:03:32;26.30;;;13.07;;
52186;SDS011;38161;53.020;6.598;2023-02-28T07:06:00;19.67;;;11.23;;
52186;SDS011;38161;53.020;6.598;2023-02-28T07:08:26;26.80;;;13.35;;
52186;SDS011;38161;53.020;6.598;2023-02-28T07:10:55;21.23;;;13.00;;
52186;SDS011;38161;53.020;6.598;2023-02-28T07:13:22;22.23;;;11.60;;
52186;SDS011;38161;53.020;6.598;2023-02-28T07:15:55;23.80;;;12.90;;
52186;SDS011;38161;53.020;6.598;2023-02-28T07:18:25;20.77;;;12.85;;
52186;SDS011;38161;53.020;6.598;2023-02-28T07:20:52;18.25;;;11.18;;
52186;SDS011;38161;53.020;6.598;2023-02-28T07:23:18;19.83;;;11.77;;
52186;SDS011;38161;53.020;6.598;2023-02-28T07:25:44;23.02;;;12.95;;
52186;SDS011;38161;53.020;6.598;2023-02-28T07:28:11;23.50;;;13.05;;
52186;SDS011;38161;53.020;6.598;2023-02-28T07:30:37;25.45;;;13.27;;
52186;SDS011;38161;53.020;6.598;2023-02-28T07:33:03;22.00;;;12.35;;
52186;SDS011;38161;53.020;6.598;2023-02-28T07:35:29;23.80;;;13.07;;
52186;SDS011;38161;53.020;6.598;2023-02-28T07:37:56;23.50;;;12.57;;
52186;SDS011;38161;53.020;6.598;2023-02-28T07:40:23;20.80;;;12.67;;
52186;SDS011;38161;53.020;6.598;2023-02-28T07:42:49;24.27;;;12.80;;
52186;SDS011;38161;53.020;6.598;2023-02-28T07:45:15;23.73;;;12.07;;
52186;SDS011;38161;53.020;6.598;2023-02-28T07:47:41;23.47;;;13.30;;
52186;SDS011;38161;53.020;6.598;2023-02-28T07:52:35;24.05;;;12.40;;
52186;SDS011;38161;53.020;6.598;2023-02-28T07:55:02;27.05;;;12.77;;
52186;SDS011;38161;53.020;6.598;2023-02-28T07:57:29;21.97;;;12.87;;
52186;SDS011;38161;53.020;6.598;2023-02-28T07:59:55;19.55;;;11.30;;
52186;SDS011;38161;53.020;6.598;2023-02-28T08:02:21;20.67;;;11.90;;
52186;SDS011;38161;53.020;6.598;2023-02-28T08:04:47;18.98;;;11.68;;
52186;SDS011;38161;53.020;6.598;2023-02-28T08:07:14;23.38;;;12.35;;
52186;SDS011;38161;53.020;6.598;2023-02-28T08:09:41;24.57;;;12.87;;
52186;SDS011;38161;53.020;6.598;2023-02-28T08:12:08;20.38;;;12.02;;
52186;SDS011;38161;53.020;6.598;2023-02-28T08:14:35;22.50;;;12.67;;
52186;SDS011;38161;53.020;6.598;2023-02-28T08:17:01;25.13;;;13.50;;
52186;SDS011;38161;53.020;6.598;2023-02-28T08:19:27;23.20;;;13.02;;
52186;SDS011;38161;53.020;6.598;2023-02-28T08:21:53;25.15;;;13.15;;
52186;SDS011;38161;53.020;6.598;2023-02-28T08:24:19;25.55;;;13.00;;
52186;SDS011;38161;53.020;6.598;2023-02-28T08:26:46;22.02;;;13.52;;
52186;SDS011;38161;53.020;6.598;2023-02-28T08:29:12;25.13;;;13.68;;
52186;SDS011;38161;53.020;6.598;2023-02-28T08:31:37;23.27;;;12.73;;
52186;SDS011;38161;53.020;6.598;2023-02-28T08:34:07;20.23;;;12.63;;
52186;SDS011;38161;53.020;6.598;2023-02-28T08:36:40;24.55;;;13.18;;
52186;SDS011;38161;53.020;6.598;2023-02-28T08:39:07;22.27;;;12.75;;
52186;SDS011;38161;53.020;6.598;2023-02-28T08:41:34;25.55;;;13.77;;
52186;SDS011;38161;53.020;6.598;2023-02-28T08:43:59;23.03;;;13.27;;
52186;SDS011;38161;53.020;6.598;2023-02-28T08:46:25;23.03;;;12.87;;
52186;SDS011;38161;53.020;6.598;2023-02-28T08:48:52;20.60;;;12.65;;
52186;SDS011;38161;53.020;6.598;2023-02-28T08:51:19;21.07;;;13.00;;
52186;SDS011;38161;53.020;6.598;2023-02-28T08:53:51;27.58;;;14.73;;
52186;SDS011;38161;53.020;6.598;2023-02-28T08:56:18;26.98;;;14.32;;
52186;SDS011;38161;53.020;6.598;2023-02-28T09:01:18;26.23;;;13.40;;
52186;SDS011;38161;53.020;6.598;2023-02-28T09:03:47;24.00;;;15.18;;
52186;SDS011;38161;53.020;6.598;2023-02-28T09:06:14;22.07;;;13.70;;
52186;SDS011;38161;53.020;6.598;2023-02-28T09:08:41;21.48;;;12.93;;
52186;SDS011;38161;53.020;6.598;2023-02-28T09:11:08;25.45;;;13.82;;
52186;SDS011;38161;53.020;6.598;2023-02-28T09:16:01;21.15;;;13.38;;
52186;SDS011;38161;53.020;6.598;2023-02-28T09:18:28;20.38;;;12.68;;
52186;SDS011;38161;53.020;6.598;2023-02-28T09:20:55;21.33;;;15.20;;
52186;SDS011;38161;53.020;6.598;2023-02-28T09:23:21;28.77;;;16.17;;
52186;SDS011;38161;53.020;6.598;2023-02-28T09:25:53;28.52;;;15.82;;
52186;SDS011;38161;53.020;6.598;2023-02-28T09:28:20;31.75;;;17.23;;
52186;SDS011;38161;53.020;6.598;2023-02-28T09:30:50;27.75;;;16.35;;
52186;SDS011;38161;53.020;6.598;2023-02-28T09:33:18;26.67;;;15.27;;
52186;SDS011;38161;53.020;6.598;2023-02-28T09:35:46;18.83;;;12.90;;
52186;SDS011;38161;53.020;6.598;2023-02-28T09:38:13;20.48;;;11.63;;
52186;SDS011;38161;53.020;6.598;2023-02-28T09:40:44;23.00;;;14.15;;
52186;SDS011;38161;53.020;6.598;2023-02-28T09:43:15;26.40;;;13.60;;
52186;SDS011;38161;53.020;6.598;2023-02-28T09:45:44;25.50;;;16.00;;
52186;SDS011;38161;53.020;6.598;2023-02-28T09:48:23;21.23;;;13.65;;
52186;SDS011;38161;53.020;6.598;2023-02-28T09:50:55;19.10;;;11.68;;
52186;SDS011;38161;53.020;6.598;2023-02-28T09:56:18;20.70;;;12.40;;
52186;SDS011;38161;53.020;6.598;2023-02-28T10:01:29;13.75;;;7.07;;
52186;SDS011;38161;53.020;6.598;2023-02-28T10:06:50;14.88;;;8.73;;
52186;SDS011;38161;53.020;6.598;2023-02-28T10:09:22;14.20;;;8.00;;
52186;SDS011;38161;53.020;6.598;2023-02-28T10:11:52;16.25;;;9.93;;
52186;SDS011;38161;53.020;6.598;2023-02-28T10:14:22;15.70;;;7.85;;
52186;SDS011;38161;53.020;6.598;2023-02-28T10:19:56;12.88;;;6.75;;
52186;SDS011;38161;53.020;6.598;2023-02-28T10:22:41;14.40;;;7.38;;
52186;SDS011;38161;53.020;6.598;2023-02-28T10:25:20;11.35;;;5.13;;
52186;SDS011;38161;53.020;6.598;2023-02-28T10:27:48;10.82;;;6.53;;
52186;SDS011;38161;53.020;6.598;2023-02-28T10:30:18;7.28;;;5.03;;
52186;SDS011;38161;53.020;6.598;2023-02-28T10:32:49;8.68;;;4.18;;
52186;SDS011;38161;53.020;6.598;2023-02-28T10:37:49;5.90;;;3.10;;
52186;SDS011;38161;53.020;6.598;2023-02-28T10:43:16;6.32;;;3.80;;
52186;SDS011;38161;53.020;6.598;2023-02-28T10:48:41;11.00;;;5.38;;
52186;SDS011;38161;53.020;6.598;2023-02-28T10:51:10;8.35;;;5.13;;
52186;SDS011;38161;53.020;6.598;2023-02-28T11:03:49;10.32;;;5.38;;
52186;SDS011;38161;53.020;6.598;2023-02-28T11:06:19;10.88;;;5.97;;
52186;SDS011;38161;53.020;6.598;2023-02-28T11:08:47;8.65;;;5.68;;
52186;SDS011;38161;53.020;6.598;2023-02-28T11:11:28;9.32;;;5.82;;
52186;SDS011;38161;53.020;6.598;2023-02-28T11:14:05;8.40;;;6.03;;
52186;SDS011;38161;53.020;6.598;2023-02-28T11:16:42;10.93;;;6.20;;
52186;SDS011;38161;53.020;6.598;2023-02-28T11:19:15;8.33;;;6.07;;
52186;SDS011;38161;53.020;6.598;2023-02-28T11:21:55;12.70;;;6.22;;
52186;SDS011;38161;53.020;6.598;2023-02-28T11:26:52;9.95;;;5.88;;
52186;SDS011;38161;53.020;6.598;2023-02-28T11:32:27;13.48;;;6.43;;
52186;SDS011;38161;53.020;6.598;2023-02-28T11:34:34;10.60;;;5.80;;
52186;SDS011;38161;53.020;6.598;2023-02-28T11:37:02;11.63;;;6.22;;
52186;SDS011;38161;53.020;6.598;2023-02-28T11:39:30;9.07;;;5.78;;
52186;SDS011;38161;53.020;6.598;2023-02-28T11:44:54;10.55;;;6.22;;
52186;SDS011;38161;53.020;6.598;2023-02-28T11:50:15;9.37;;;5.93;;
52186;SDS011;38161;53.020;6.598;2023-02-28T11:52:52;8.80;;;5.72;;
52186;SDS011;38161;53.020;6.598;2023-02-28T11:55:24;8.60;;;5.57;;
52186;SDS011;38161;53.020;6.598;2023-02-28T12:01:03;9.90;;;5.68;;
52186;SDS011;38161;53.020;6.598;2023-02-28T12:04:10;8.80;;;5.75;;
52186;SDS011;38161;53.020;6.598;2023-02-28T12:15:47;13.00;;;7.63;;
52186;SDS011;38161;53.020;6.598;2023-02-28T12:24:01;8.23;;;6.28;;
52186;SDS011;38161;53.020;6.598;2023-02-28T12:27:05;10.18;;;5.93;;
52186;SDS011;38161;53.020;6.598;2023-02-28T12:30:35;7.97;;;6.20;;
52186;SDS011;38161;53.020;6.598;2023-02-28T12:32:33;9.82;;;6.30;;
52186;SDS011;38161;53.020;6.598;2023-02-28T12:37:49;8.80;;;6.57;;
52186;SDS011;38161;53.020;6.598;2023-02-28T12:40:49;8.05;;;5.78;;
52186;SDS011;38161;53.020;6.598;2023-02-28T12:43:19;10.77;;;6.20;;
52186;SDS011;38161;53.020;6.598;2023-02-28T12:45:58;7.55;;;5.35;;
52186;SDS011;38161;53.020;6.598;2023-02-28T12:51:11;8.10;;;5.40;;
52186;SDS011;38161;53.020;6.598;2023-02-28T12:53:54;11.68;;;6.70;;
52186;SDS011;38161;53.020;6.598;2023-02-28T13:10:02;9.32;;;5.35;;
52186;SDS011;38161;53.020;6.598;2023-02-28T13:12:29;9.43;;;5.75;;
52186;SDS011;38161;53.020;6.598;2023-02-28T13:15:28;10.05;;;5.43;;
52186;SDS011;38161;53.020;6.598;2023-02-28T13:17:53;10.30;;;5.43;;
52186;SDS011;38161;53.020;6.598;2023-02-28T13:20:25;8.68;;;6.05;;
52186;SDS011;38161;53.020;6.598;2023-02-28T13:22:55;8.43;;;5.88;;
52186;SDS011;38161;53.020;6.598;2023-02-28T13:27:48;7.97;;;5.83;;
52186;SDS011;38161;53.020;6.598;2023-02-28T13:38:47;8.15;;;4.95;;
52186;SDS011;38161;53.020;6.598;2023-02-28T13:46:36;9.50;;;5.95;;
52186;SDS011;38161;53.020;6.598;2023-02-28T13:52:20;9.38;;;5.88;;
52186;SDS011;38161;53.020;6.598;2023-02-28T14:00:35;7.65;;;5.75;;
52186;SDS011;38161;53.020;6.598;2023-02-28T14:02:51;10.35;;;5.38;;
52186;SDS011;38161;53.020;6.598;2023-02-28T14:05:23;9.25;;;6.18;;
52186;SDS011;38161;53.020;6.598;2023-02-28T14:07:58;8.43;;;5.50;;
52186;SDS011;38161;53.020;6.598;2023-02-28T14:13:03;8.82;;;5.28;;
52186;SDS011;38161;53.020;6.598;2023-02-28T14:15:59;7.78;;;5.80;;
52186;SDS011;38161;53.020;6.598;2023-02-28T14:24:13;9.05;;;5.45;;
52186;SDS011;38161;53.020;6.598;2023-02-28T14:27:12;8.23;;;5.15;;
52186;SDS011;38161;53.020;6.598;2023-02-28T14:34:54;9.55;;;5.40;;
52186;SDS011;38161;53.020;6.598;2023-02-28T14:37:36;8.98;;;5.57;;
52186;SDS011;38161;53.020;6.598;2023-02-28T14:40:04;8.52;;;5.53;;
52186;SDS011;38161;53.020;6.598;2023-02-28T14:42:37;15.18;;;6.22;;
52186;SDS011;38161;53.020;6.598;2023-02-28T14:45:21;9.82;;;5.72;;
52186;SDS011;38161;53.020;6.598;2023-02-28T14:47:49;10.45;;;6.03;;
52186;SDS011;38161;53.020;6.598;2023-02-28T14:50:17;9.18;;;6.15;;
52186;SDS011;38161;53.020;6.598;2023-02-28T14:52:45;7.18;;;5.38;;
52186;SDS011;38161;53.020;6.598;2023-02-28T14:55:15;7.82;;;5.35;;
52186;SDS011;38161;53.020;6.598;2023-02-28T14:57:56;8.70;;;6.15;;
52186;SDS011;38161;53.020;6.598;2023-02-28T15:00:31;8.85;;;6.03;;
52186;SDS011;38161;53.020;6.598;2023-02-28T15:02:59;9.43;;;5.40;;
52186;SDS011;38161;53.020;6.598;2023-02-28T15:08:04;9.27;;;6.18;;
52186;SDS011;38161;53.020;6.598;2023-02-28T15:10:43;8.25;;;5.78;;
52186;SDS011;38161;53.020;6.598;2023-02-28T15:13:12;9.70;;;5.60;;
52186;SDS011;38161;53.020;6.598;2023-02-28T15:18:31;9.52;;;6.90;;
52186;SDS011;38161;53.020;6.598;2023-02-28T15:21:06;11.40;;;6.70;;
52186;SDS011;38161;53.020;6.598;2023-02-28T15:23:37;12.02;;;6.68;;
52186;SDS011;38161;53.020;6.598;2023-02-28T15:26:05;9.38;;;6.40;;
52186;SDS011;38161;53.020;6.598;2023-02-28T15:28:31;10.77;;;6.60;;
52186;SDS011;38161;53.020;6.598;2023-02-28T15:31:01;12.13;;;6.60;;
52186;SDS011;38161;53.020;6.598;2023-02-28T15:33:47;10.40;;;6.50;;
52186;SDS011;38161;53.020;6.598;2023-02-28T15:36:29;8.73;;;5.93;;
52186;SDS011;38161;53.020;6.598;2023-02-28T15:38:58;9.18;;;6.25;;
52186;SDS011;38161;53.020;6.598;2023-02-28T15:41:29;12.25;;;6.88;;
52186;SDS011;38161;53.020;6.598;2023-02-28T15:47:00;13.50;;;7.30;;
52186;SDS011;38161;53.020;6.598;2023-02-28T15:49:29;11.05;;;7.22;;
52186;SDS011;38161;53.020;6.598;2023-02-28T15:52:11;11.52;;;7.13;;
52186;SDS011;38161;53.020;6.598;2023-02-28T15:54:42;10.98;;;6.82;;
52186;SDS011;38161;53.020;6.598;2023-02-28T15:57:13;11.00;;;7.07;;
52186;SDS011;38161;53.020;6.598;2023-02-28T15:59:45;9.30;;;6.75;;
52186;SDS011;38161;53.020;6.598;2023-02-28T16:02:31;11.68;;;6.90;;
52186;SDS011;38161;53.020;6.598;2023-02-28T16:07:34;13.90;;;7.75;;
52186;SDS011;38161;53.020;6.598;2023-02-28T16:10:01;9.48;;;7.05;;
52186;SDS011;38161;53.020;6.598;2023-02-28T16:12:27;13.83;;;7.17;;
52186;SDS011;38161;53.020;6.598;2023-02-28T16:14:56;10.40;;;7.25;;
52186;SDS011;38161;53.020;6.598;2023-02-28T16:17:28;10.30;;;7.07;;
52186;SDS011;38161;53.020;6.598;2023-02-28T16:19:56;9.35;;;7.05;;
52186;SDS011;38161;53.020;6.598;2023-02-28T16:22:23;12.70;;;7.53;;
52186;SDS011;38161;53.020;6.598;2023-02-28T16:24:49;12.57;;;7.60;;
52186;SDS011;38161;53.020;6.598;2023-02-28T16:27:16;11.90;;;7.37;;
52186;SDS011;38161;53.020;6.598;2023-02-28T16:30:03;11.18;;;7.22;;
52186;SDS011;38161;53.020;6.598;2023-02-28T16:32:30;10.63;;;7.45;;
52186;SDS011;38161;53.020;6.598;2023-02-28T16:35:00;9.60;;;7.25;;
52186;SDS011;38161;53.020;6.598;2023-02-28T16:39:52;9.43;;;7.10;;
52186;SDS011;38161;53.020;6.598;2023-02-28T16:42:22;14.80;;;8.30;;
52186;SDS011;38161;53.020;6.598;2023-02-28T16:44:50;11.73;;;8.43;;
52186;SDS011;38161;53.020;6.598;2023-02-28T16:47:17;12.38;;;8.30;;
52186;SDS011;38161;53.020;6.598;2023-02-28T16:49:44;10.00;;;8.45;;
52186;SDS011;38161;53.020;6.598;2023-02-28T16:52:10;13.98;;;8.05;;
52186;SDS011;38161;53.020;6.598;2023-02-28T16:54:37;11.75;;;7.43;;
52186;SDS011;38161;53.020;6.598;2023-02-28T16:57:04;10.13;;;7.90;;
52186;SDS011;38161;53.020;6.598;2023-02-28T16:59:31;13.48;;;7.57;;
52186;SDS011;38161;53.020;6.598;2023-02-28T17:01:57;12.27;;;7.80;;
52186;SDS011;38161;53.020;6.598;2023-02-28T17:04:24;12.57;;;7.85;;
52186;SDS011;38161;53.020;6.598;2023-02-28T17:06:51;12.63;;;7.50;;
52186;SDS011;38161;53.020;6.598;2023-02-28T17:09:18;12.27;;;8.13;;
52186;SDS011;38161;53.020;6.598;2023-02-28T17:11:48;12.00;;;8.30;;
52186;SDS011;38161;53.020;6.598;2023-02-28T17:14:14;12.75;;;7.82;;
52186;SDS011;38161;53.020;6.598;2023-02-28T17:16:41;11.88;;;7.72;;
52186;SDS011;38161;53.020;6.598;2023-02-28T17:21:37;11.13;;;7.97;;
52186;SDS011;38161;53.020;6.598;2023-02-28T17:24:03;10.00;;;7.55;;
52186;SDS011;38161;53.020;6.598;2023-02-28T17:26:29;11.70;;;7.97;;
52186;SDS011;38161;53.020;6.598;2023-02-28T17:28:55;14.35;;;8.43;;
52186;SDS011;38161;53.020;6.598;2023-02-28T17:31:22;12.52;;;8.32;;
52186;SDS011;38161;53.020;6.598;2023-02-28T17:33:49;11.35;;;8.38;;
52186;SDS011;38161;53.020;6.598;2023-02-28T17:36:16;11.55;;;8.50;;
52186;SDS011;38161;53.020;6.598;2023-02-28T17:38:49;13.00;;;8.38;;
52186;SDS011;38161;53.020;6.598;2023-02-28T17:41:15;12.57;;;7.97;;
52186;SDS011;38161;53.020;6.598;2023-02-28T17:43:41;11.97;;;8.00;;
52186;SDS011;38161;53.020;6.598;2023-02-28T17:46:19;11.03;;;8.17;;
52186;SDS011;38161;53.020;6.598;2023-02-28T17:48:48;11.27;;;8.07;;
52186;SDS011;38161;53.020;6.598;2023-02-28T17:51:15;11.45;;;7.57;;
52186;SDS011;38161;53.020;6.598;2023-02-28T17:53:42;13.38;;;8.68;;
52186;SDS011;38161;53.020;6.598;2023-02-28T17:56:18;11.43;;;9.05;;
52186;SDS011;38161;53.020;6.598;2023-02-28T17:58:45;13.65;;;8.70;;
52186;SDS011;38161;53.020;6.598;2023-02-28T18:01:12;12.27;;;8.40;;
52186;SDS011;38161;53.020;6.598;2023-02-28T18:03:38;12.15;;;9.23;;
52186;SDS011;38161;53.020;6.598;2023-02-28T18:06:04;12.23;;;8.52;;
52186;SDS011;38161;53.020;6.598;2023-02-28T18:08:31;11.60;;;8.75;;